createdAt,value
2019-03-12T00:00:38.398Z,2.03
2019-03-12T00:03:45.183Z,1.98
2019-03-12T00:06:51.941Z,1.97
2019-03-12T00:09:58.714Z,1.81
2019-03-12T00:13:05.566Z,1.96
2019-03-12T00:16:12.621Z,1.80
2019-03-12T00:19:19.371Z,1.68
2019-03-12T00:22:26.511Z,1.63
2019-03-12T00:25:33.349Z,1.51
2019-03-12T00:28:40.363Z,1.44
2019-03-12T00:31:47.195Z,1.44
2019-03-12T00:34:54.116Z,1.45
2019-03-12T00:38:00.967Z,1.48
2019-03-12T00:41:07.744Z,1.41
2019-03-12T00:44:14.960Z,1.40
2019-03-12T00:47:21.859Z,1.47
2019-03-12T00:50:31.039Z,1.44
2019-03-12T00:53:37.709Z,1.32
2019-03-12T00:56:44.564Z,1.39
2019-03-12T00:59:52.549Z,1.54
2019-03-12T01:02:59.343Z,1.53
2019-03-12T01:06:06.333Z,1.57
2019-03-12T01:09:13.196Z,1.60
2019-03-12T01:12:20.159Z,1.67
2019-03-12T01:15:30.036Z,1.67
2019-03-12T01:18:36.970Z,1.70
2019-03-12T01:21:44.744Z,1.74
2019-03-12T01:24:51.560Z,1.73
2019-03-12T01:27:58.466Z,1.59
2019-03-12T01:31:05.607Z,1.60
2019-03-12T01:34:12.529Z,1.62
2019-03-12T01:37:20.536Z,1.69
2019-03-12T01:40:30.134Z,1.73
2019-03-12T01:43:36.990Z,1.76
2019-03-12T01:46:44.306Z,1.72
2019-03-12T01:49:51.169Z,1.67
2019-03-12T01:52:58.015Z,1.82
2019-03-12T01:56:04.870Z,1.82
2019-03-12T01:59:11.698Z,1.69
2019-03-12T02:02:20.521Z,1.70
2019-03-12T02:05:29.397Z,1.77
2019-03-12T02:08:36.457Z,1.76
2019-03-12T02:11:43.356Z,1.70
2019-03-12T02:14:50.216Z,1.79
2019-03-12T02:17:57.082Z,1.74
2019-03-12T02:21:03.931Z,1.77
2019-03-12T02:24:11.835Z,1.86
2019-03-12T02:27:18.855Z,1.73
2019-03-12T02:30:27.421Z,1.82
2019-03-12T02:33:37.375Z,1.83
2019-03-12T02:36:44.415Z,1.79
2019-03-12T02:39:51.339Z,1.77
2019-03-12T02:42:59.256Z,1.71
2019-03-12T02:46:08.519Z,1.80
2019-03-12T02:49:15.832Z,1.77
2019-03-12T02:52:23.717Z,1.76
2019-03-12T02:55:30.599Z,1.80
2019-03-12T02:58:37.390Z,1.77
2019-03-12T03:01:45.221Z,1.78
2019-03-12T03:04:54.229Z,1.82
2019-03-12T03:08:06.547Z,1.74
2019-03-12T03:11:13.336Z,1.86
2019-03-12T03:14:41.714Z,1.76
2019-03-12T03:17:48.563Z,1.77
2019-03-12T03:20:56.358Z,1.83
2019-03-12T03:24:03.360Z,1.73
2019-03-12T03:27:10.201Z,1.82
2019-03-12T03:30:21.118Z,1.72
2019-03-12T03:33:31.124Z,1.76
2019-03-12T03:36:37.080Z,1.75
2019-03-12T03:39:43.914Z,1.70
2019-03-12T03:42:52.514Z,1.60
2019-03-12T03:45:59.347Z,1.66
2019-03-12T03:49:06.314Z,1.57
2019-03-12T03:52:13.664Z,1.65
2019-03-12T03:55:20.609Z,1.62
2019-03-12T03:58:30.331Z,1.56
2019-03-12T04:01:39.880Z,1.56
2019-03-12T04:04:46.712Z,1.60
2019-03-12T04:07:53.597Z,1.48
2019-03-12T04:11:00.586Z,1.62
2019-03-12T04:14:07.370Z,1.55
2019-03-12T04:17:14.322Z,1.50
2019-03-12T04:20:21.327Z,1.70
2019-03-12T04:23:29.810Z,1.52
2019-03-12T04:26:38.529Z,1.69
2019-03-12T04:29:45.369Z,1.70
2019-03-12T04:32:52.454Z,1.55
2019-03-12T04:35:59.228Z,1.58
2019-03-12T04:39:07.742Z,1.57
2019-03-12T04:42:16.182Z,1.73
2019-03-12T04:45:25.678Z,1.59
2019-03-12T04:48:37.281Z,1.72
2019-03-12T04:51:44.165Z,1.66
2019-03-12T04:54:51.423Z,1.64
2019-03-12T04:57:59.384Z,1.62
2019-03-12T05:01:06.163Z,1.69
2019-03-12T05:04:13.197Z,1.71
2019-03-12T05:07:20.037Z,1.75
2019-03-12T05:10:26.951Z,1.78
2019-03-12T05:13:33.857Z,1.81
2019-03-12T05:16:40.596Z,1.80
2019-03-12T05:19:47.847Z,1.80
2019-03-12T05:22:54.924Z,1.83
2019-03-12T05:26:01.748Z,1.84
2019-03-12T05:29:10.835Z,1.89
2019-03-12T05:32:17.380Z,1.96
2019-03-12T05:35:28.355Z,1.86
2019-03-12T05:38:35.169Z,1.79
2019-03-12T05:41:44.750Z,1.74
2019-03-12T05:44:51.492Z,1.82
2019-03-12T05:47:59.486Z,1.68
2019-03-12T05:51:06.320Z,1.72
2019-03-12T05:54:13.173Z,1.85
2019-03-12T05:57:20.282Z,1.85
2019-03-12T06:00:29.919Z,1.84
2019-03-12T06:03:36.772Z,1.84
2019-03-12T06:06:43.566Z,1.63
2019-03-12T06:09:50.417Z,1.76
2019-03-12T06:12:57.289Z,1.67
2019-03-12T06:16:04.435Z,1.63
2019-03-12T06:19:11.311Z,1.71
2019-03-12T06:22:20.394Z,1.68
2019-03-12T06:25:30.641Z,1.83
2019-03-12T06:28:37.498Z,1.77
2019-03-12T06:32:02.103Z,1.81
2019-03-12T06:35:16.473Z,1.78
2019-03-12T06:38:33.251Z,1.90
2019-03-12T06:41:56.149Z,1.95
2019-03-12T06:45:23.022Z,1.95
2019-03-12T06:48:45.675Z,1.98
2019-03-12T06:52:29.868Z,1.96
2019-03-12T06:55:54.073Z,1.90
2019-03-12T06:59:18.804Z,2.00
2019-03-12T07:02:50.656Z,2.02
2019-03-12T07:06:13.881Z,2.10
2019-03-12T07:09:48.817Z,2.19
2019-03-12T07:13:04.949Z,2.21
2019-03-12T07:16:33.263Z,2.23
2019-03-12T07:20:13.330Z,2.26
2019-03-12T07:23:35.265Z,2.34
2019-03-12T07:27:01.528Z,2.39
2019-03-12T07:30:31.540Z,2.34
2019-03-12T07:33:51.742Z,2.31
2019-03-12T07:37:20.499Z,2.43
2019-03-12T07:40:55.757Z,2.49
2019-03-12T07:44:30.509Z,2.61
2019-03-12T07:47:56.266Z,2.64
2019-03-12T07:51:28.055Z,2.78
2019-03-12T07:54:50.877Z,2.76
2019-03-12T07:58:15.562Z,2.75
2019-03-12T08:01:56.646Z,2.78
2019-03-12T08:05:10.377Z,2.76
2019-03-12T08:08:42.467Z,2.85
2019-03-12T08:11:53.994Z,2.87
2019-03-12T08:15:22.609Z,2.89
2019-03-12T08:18:26.549Z,2.89
2019-03-12T08:21:41.658Z,2.93
2019-03-12T08:25:02.542Z,3.01
2019-03-12T08:28:25.236Z,3.08
2019-03-12T08:31:54.033Z,3.10
2019-03-12T08:35:09.653Z,3.15
2019-03-12T08:38:25.967Z,3.18
2019-03-12T08:41:41.256Z,3.27
2019-03-12T08:45:05.994Z,3.25
2019-03-12T08:48:34.760Z,3.24
2019-03-12T08:51:58.527Z,3.32
2019-03-12T08:55:30.519Z,3.42
2019-03-12T08:58:49.511Z,3.42
2019-03-12T09:02:21.779Z,3.56
2019-03-12T09:05:45.712Z,3.55
2019-03-12T09:09:10.443Z,3.69
2019-03-12T09:12:36.169Z,3.71
2019-03-12T09:15:55.952Z,3.82
2019-03-12T09:19:21.716Z,3.82
2019-03-12T09:22:49.130Z,3.95
2019-03-12T09:26:11.986Z,3.99
2019-03-12T09:29:27.119Z,4.27
2019-03-12T09:32:52.884Z,4.53
2019-03-12T09:36:29.153Z,4.96
2019-03-12T09:39:54.053Z,4.40
2019-03-12T09:43:10.806Z,5.10
2019-03-12T09:46:36.519Z,5.39
2019-03-12T09:50:07.393Z,5.37
2019-03-12T09:53:20.165Z,5.48
2019-03-12T09:56:44.535Z,5.81
2019-03-12T10:00:15.571Z,5.77
2019-03-12T10:03:33.105Z,5.78
2019-03-12T10:07:01.689Z,5.76
2019-03-12T10:10:34.218Z,5.85
2019-03-12T10:13:52.564Z,5.85
2019-03-12T10:17:21.376Z,6.21
2019-03-12T10:20:44.939Z,5.97
2019-03-12T10:23:57.904Z,6.09
2019-03-12T10:27:14.785Z,6.50
2019-03-12T10:30:43.567Z,5.87
2019-03-12T10:34:30.006Z,6.13
2019-03-12T10:37:48.074Z,5.88
2019-03-12T10:41:02.191Z,6.10
2019-03-12T10:44:23.207Z,5.80
2019-03-12T10:47:30.803Z,6.13
2019-03-12T10:50:37.743Z,6.52
2019-03-12T10:53:44.573Z,6.27
2019-03-12T10:56:51.760Z,6.32
2019-03-12T10:59:58.703Z,5.98
2019-03-12T11:03:05.621Z,5.81
2019-03-12T11:06:12.879Z,5.75
2019-03-12T11:09:19.901Z,6.16
2019-03-12T11:12:26.734Z,6.64
2019-03-12T11:15:33.586Z,6.28
2019-03-12T11:18:40.328Z,6.18
2019-03-12T11:21:47.159Z,6.35
2019-03-12T11:24:54.057Z,6.42
2019-03-12T11:28:00.988Z,6.84
2019-03-12T11:31:08.907Z,6.82
2019-03-12T11:34:17.151Z,7.21
2019-03-12T11:37:24.108Z,6.78
2019-03-12T11:40:32.499Z,6.55
2019-03-12T11:43:39.485Z,6.98
2019-03-12T11:46:46.534Z,6.56
2019-03-12T11:49:53.546Z,6.72
2019-03-12T11:53:00.966Z,6.61
2019-03-12T11:56:09.211Z,6.45
2019-03-12T11:59:16.066Z,7.00
2019-03-12T12:02:23.630Z,7.30
2019-03-12T12:05:30.632Z,7.31
2019-03-12T12:08:37.913Z,7.20
2019-03-12T12:11:44.743Z,7.27
2019-03-12T12:14:54.530Z,7.52
2019-03-12T12:18:02.479Z,7.26
2019-03-12T12:21:09.314Z,7.30
2019-03-12T12:24:19.213Z,7.39
2019-03-12T12:27:28.909Z,7.16
2019-03-12T12:30:35.900Z,7.34
2019-03-12T12:33:42.791Z,7.05
2019-03-12T12:36:52.850Z,7.17
2019-03-12T12:40:02.292Z,7.63
2019-03-12T12:43:09.320Z,7.29
2019-03-12T12:46:16.681Z,7.70
2019-03-12T12:49:23.842Z,7.73
2019-03-12T12:52:30.621Z,7.57
2019-03-12T12:55:37.401Z,7.41
2019-03-12T12:58:46.969Z,7.76
2019-03-12T13:01:53.999Z,7.90
2019-03-12T13:05:00.842Z,7.90
2019-03-12T13:08:07.970Z,7.86
2019-03-12T13:11:15.733Z,7.92
2019-03-12T13:14:22.666Z,8.10
2019-03-12T13:17:29.497Z,7.87
2019-03-12T13:20:36.349Z,7.84
2019-03-12T13:23:44.309Z,7.55
2019-03-12T13:26:53.541Z,7.54
2019-03-12T13:30:00.317Z,7.32
2019-03-12T13:33:07.192Z,7.45
2019-03-12T13:36:16.946Z,7.27
2019-03-12T13:39:25.534Z,7.40
2019-03-12T13:42:32.454Z,7.81
2019-03-12T13:45:39.583Z,7.97
2019-03-12T13:48:46.435Z,8.03
2019-03-12T13:51:55.947Z,8.04
2019-03-12T13:55:03.724Z,7.80
2019-03-12T13:58:11.617Z,8.21
2019-03-12T14:01:24.203Z,8.44
2019-03-12T14:04:32.216Z,8.52
2019-03-12T14:07:39.109Z,8.57
2019-03-12T14:10:45.999Z,8.64
2019-03-12T14:13:53.964Z,8.95
2019-03-12T14:17:00.810Z,9.13
2019-03-12T14:20:48.087Z,8.85
2019-03-12T14:24:03.493Z,8.67
2019-03-12T14:27:11.897Z,8.96
2019-03-12T14:30:21.150Z,9.04
2019-03-12T14:33:29.202Z,8.90
2019-03-12T14:36:36.314Z,8.66
2019-03-12T14:39:43.192Z,8.52
2019-03-12T14:42:50.063Z,8.43
2019-03-12T14:45:57.116Z,8.23
2019-03-12T14:49:09.721Z,7.94
2019-03-12T14:52:29.300Z,7.83
2019-03-12T14:55:36.185Z,7.76
2019-03-12T14:58:43.153Z,7.80
2019-03-12T15:01:50.029Z,8.17
2019-03-12T15:04:56.883Z,7.93
2019-03-12T15:08:03.830Z,7.91
2019-03-12T15:11:10.624Z,7.61
2019-03-12T15:14:23.023Z,7.66
2019-03-12T15:17:29.768Z,7.92
2019-03-12T15:20:36.648Z,7.84
2019-03-12T15:23:44.648Z,7.58
2019-03-12T15:26:51.432Z,7.48
2019-03-12T15:29:58.393Z,7.47
2019-03-12T15:33:05.291Z,7.29
2019-03-12T15:36:12.296Z,7.36
2019-03-12T15:39:22.342Z,7.32
2019-03-12T15:42:30.051Z,7.26
2019-03-12T15:45:47.509Z,7.34
2019-03-12T15:48:57.423Z,7.33
2019-03-12T15:52:04.422Z,7.20
2019-03-12T15:55:12.933Z,7.19
2019-03-12T15:58:20.919Z,7.07
2019-03-12T16:01:27.695Z,7.11
2019-03-12T16:04:36.579Z,6.97
2019-03-12T16:07:43.331Z,6.96
2019-03-12T16:10:57.963Z,6.88
2019-03-12T16:13:58.718Z,6.86
2019-03-12T16:17:05.838Z,6.73
2019-03-12T16:20:13.651Z,6.53
2019-03-12T16:23:21.722Z,6.64
2019-03-12T16:26:28.538Z,6.59
2019-03-12T16:29:36.435Z,6.70
2019-03-12T16:32:45.357Z,6.49
2019-03-12T16:35:52.478Z,6.52
2019-03-12T16:39:00.206Z,6.40
2019-03-12T16:42:07.852Z,6.50
2019-03-12T16:45:14.979Z,6.52
2019-03-12T16:48:22.224Z,6.46
2019-03-12T16:51:29.086Z,6.38
2019-03-12T16:54:38.331Z,6.19
2019-03-12T16:57:47.363Z,6.32
2019-03-12T17:00:54.268Z,6.10
2019-03-12T17:04:01.091Z,6.12
2019-03-12T17:07:07.933Z,6.15
2019-03-12T17:10:17.524Z,6.17
2019-03-12T17:13:26.991Z,6.11
2019-03-12T17:16:33.830Z,6.00
2019-03-12T17:19:41.152Z,6.07
2019-03-12T17:22:48.040Z,5.96
2019-03-12T17:25:55.013Z,6.09
2019-03-12T17:29:01.796Z,6.01
2019-03-12T17:32:08.757Z,5.92
2019-03-12T17:35:18.918Z,5.89
2019-03-12T17:38:45.871Z,5.94
2019-03-12T17:41:41.664Z,5.84
2019-03-12T17:44:48.542Z,5.88
2019-03-12T17:47:55.382Z,5.90
2019-03-12T17:51:02.303Z,5.94
2019-03-12T17:54:09.132Z,5.95
2019-03-12T17:57:17.309Z,5.93
2019-03-12T18:00:28.315Z,6.06
2019-03-12T18:03:34.648Z,6.01
2019-03-12T18:06:41.542Z,6.07
2019-03-12T18:09:48.455Z,5.99
2019-03-12T18:12:55.304Z,6.04
2019-03-12T18:16:02.180Z,6.10
2019-03-12T18:19:09.036Z,6.09
2019-03-12T18:22:16.336Z,6.00
2019-03-12T18:25:26.015Z,6.06
2019-03-12T18:28:32.993Z,6.19
2019-03-12T18:31:40.494Z,6.01
2019-03-12T18:34:47.468Z,6.11
2019-03-12T18:38:00.594Z,6.00
2019-03-12T18:41:25.432Z,6.06
2019-03-12T18:44:38.117Z,6.05
2019-03-12T18:47:47.157Z,6.09
2019-03-12T18:50:59.423Z,6.06
2019-03-12T18:54:14.211Z,5.95
2019-03-12T18:57:29.242Z,6.03
2019-03-12T19:00:38.466Z,6.04
2019-03-12T19:03:55.236Z,6.03
2019-03-12T19:07:03.887Z,5.96
2019-03-12T19:10:13.408Z,6.06
2019-03-12T19:13:22.802Z,6.04
2019-03-12T19:16:31.485Z,5.95
2019-03-12T19:19:42.480Z,6.13
2019-03-12T19:22:50.359Z,6.10
2019-03-12T19:25:57.722Z,6.04
2019-03-12T19:29:06.428Z,6.03
2019-03-12T19:32:19.467Z,6.09
2019-03-12T19:35:29.109Z,6.04
2019-03-12T19:38:36.027Z,6.00
2019-03-12T19:41:45.833Z,5.98
2019-03-12T19:44:53.208Z,6.11
2019-03-12T19:48:01.622Z,6.09
2019-03-12T19:51:09.681Z,6.37
2019-03-12T19:54:16.831Z,6.30
2019-03-12T19:57:23.983Z,6.31
2019-03-12T20:00:32.060Z,6.32
2019-03-12T20:03:39.009Z,6.20
2019-03-12T20:06:46.028Z,6.20
2019-03-12T20:11:01.453Z,6.16
2019-03-12T20:15:22.897Z,6.20
2019-03-12T20:19:24.472Z,6.14
2019-03-12T20:24:03.390Z,6.28
2019-03-12T20:28:12.338Z,6.15
2019-03-12T20:32:09.384Z,6.24
2019-03-12T20:36:40.898Z,6.06
2019-03-12T20:40:40.294Z,6.00
2019-03-12T20:44:58.692Z,5.98
2019-03-12T20:49:13.976Z,5.87
2019-03-12T20:53:12.554Z,5.87
2019-03-12T20:57:13.744Z,5.84
2019-03-12T21:01:27.746Z,5.85
2019-03-12T21:05:38.450Z,5.99
2019-03-12T21:09:40.433Z,5.94
2019-03-12T21:13:52.906Z,6.09
2019-03-12T21:18:10.119Z,6.16
2019-03-12T21:22:03.624Z,6.13
2019-03-12T21:26:29.030Z,6.11
2019-03-12T21:29:49.982Z,6.16
2019-03-12T21:32:57.088Z,6.15
2019-03-12T21:36:04.028Z,6.42
2019-03-12T21:39:11.071Z,6.36
2019-03-12T21:42:19.513Z,6.42
2019-03-12T21:45:26.598Z,6.50
2019-03-12T21:48:33.526Z,6.61
2019-03-12T21:51:40.323Z,6.75
2019-03-12T21:54:47.170Z,6.84
2019-03-12T21:57:54.213Z,6.63
2019-03-12T22:01:02.108Z,6.73
2019-03-12T22:04:14.046Z,6.72
2019-03-12T22:07:20.848Z,6.66
2019-03-12T22:10:27.809Z,6.77
2019-03-12T22:13:34.668Z,6.66
2019-03-12T22:16:42.430Z,6.46
2019-03-12T22:19:49.539Z,6.54
2019-03-12T22:23:09.978Z,6.59
2019-03-12T22:26:20.110Z,6.58
2019-03-12T22:29:27.993Z,6.55
2019-03-12T22:32:34.932Z,6.41
2019-03-12T22:35:41.863Z,6.53
2019-03-12T22:38:48.775Z,6.48
2019-03-12T22:41:56.800Z,6.40
2019-03-12T22:45:04.741Z,6.59
2019-03-12T22:48:11.970Z,6.53
2019-03-12T22:51:18.751Z,6.40
2019-03-12T22:54:25.544Z,6.29
2019-03-12T22:57:32.310Z,6.33
2019-03-12T23:00:58.254Z,6.40
2019-03-12T23:04:23.357Z,6.50
2019-03-12T23:07:48.679Z,6.38
2019-03-12T23:10:57.385Z,6.60
2019-03-12T23:14:04.297Z,6.75
2019-03-12T23:17:12.282Z,6.68
2019-03-12T23:20:21.569Z,6.78
2019-03-12T23:23:28.677Z,6.88
2019-03-12T23:26:35.851Z,6.98
2019-03-12T23:29:48.623Z,6.94
2019-03-12T23:32:55.856Z,6.92
2019-03-12T23:36:02.791Z,6.94
2019-03-12T23:39:10.294Z,6.94
2019-03-12T23:42:17.115Z,7.06
2019-03-12T23:45:24.935Z,6.87
2019-03-12T23:48:31.783Z,6.81
2019-03-12T23:51:39.974Z,6.99
2019-03-12T23:54:50.449Z,7.00
2019-03-12T23:57:57.378Z,7.04
